Puget Island, Washington
Current Conditions -  °F | °C
As of 4:15 PM on Wednesday 22 Oct 2014 (Local Time) from KKLS Reporting Station
Overcast Overcast  
Wind Chill: 57°   Ceiling: 7000
Heat Index: 57°   Visibility: 9mi
Dew Point: 52°   Wind: 13mph
Humidity: 82%   Direction: 140°SE
Pressure: 29.71"   Gusts: 16mph
Location:  46.2689°N, 123.296°W
Report Text: KKLS 222315Z AUTO 14011G14KT 9SM FEW060 OVC070 14/11 A2971 RMK AO1 P0002
Loading
Personal Weather Stations






























Interactive Weather Map
Tropical Storm Tracking
New forecast layout! Learn more

10-Day Weather Forecast

Advertisements
Track Severe Weather on mobile